Time;durP1;ratioP1;P1;durP2;ratioP2;P2;SDS_P1;SDS_P2;PMS_P1;PMS_P2;Temp;Humidity;BMP_temperature;BMP_pressure;BME280_temperature;BME280_humidity;BME280_pressure;Samples;Min_cycle;Max_cycle;Signal;HPM_P1;HPM_P2
2023/10/30 00:00:08;;;;;;;19.57;10.30;;;7.70;99.90;;;;;;4129800;28;20113;-55
2023/10/30 00:02:09;;;;;;;16.63;8.40;;;7.60;99.90;;;;;;4130789;28;20034;-61
2023/10/30 00:04:10;;;;;;;19.47;9.13;;;7.60;99.90;;;;;;4129075;28;20050;-61
2023/10/30 00:06:12;;;;;;;20.17;11.40;;;7.50;99.90;;;;;;4131229;28;20050;-58
2023/10/30 00:08:13;;;;;;;20.53;10.93;;;7.60;99.90;;;;;;4130460;28;20034;-61
2023/10/30 00:10:14;;;;;;;18.53;9.33;;;7.60;99.90;;;;;;4131064;28;20553;-59
2023/10/30 00:12:15;;;;;;;15.50;8.03;;;7.60;99.90;;;;;;4130039;28;20034;-59
2023/10/30 00:14:16;;;;;;;16.47;8.27;;;7.60;99.90;;;;;;4131104;28;20038;-61
2023/10/30 00:16:17;;;;;;;13.33;7.97;;;7.60;99.90;;;;;;4129406;28;20043;-61
2023/10/30 00:18:18;;;;;;;16.43;8.33;;;7.60;99.90;;;;;;4130960;28;20042;-60
2023/10/30 00:20:19;;;;;;;15.67;9.23;;;7.60;99.90;;;;;;4130787;28;20057;-60
2023/10/30 00:22:21;;;;;;;14.20;7.97;;;7.60;99.90;;;;;;4130748;28;20030;-56
2023/10/30 00:24:23;;;;;;;16.17;7.93;;;7.60;99.90;;;;;;4130862;28;20030;-60
2023/10/30 00:26:26;;;;;;;15.33;8.97;;;7.50;99.90;;;;;;4130177;28;20050;-61
2023/10/30 00:28:28;;;;;;;14.80;7.80;;;7.50;99.90;;;;;;4131161;28;20088;-59
2023/10/30 00:30:29;;;;;;;14.30;8.03;;;7.50;99.90;;;;;;4129551;28;20101;-61
2023/10/30 00:32:30;;;;;;;16.27;8.50;;;7.50;99.90;;;;;;4131374;28;20026;-61
2023/10/30 00:34:32;;;;;;;18.20;8.70;;;7.40;99.90;;;;;;4129879;28;20430;-60
2023/10/30 00:36:33;;;;;;;13.43;7.63;;;7.40;99.90;;;;;;4131324;28;20085;-62
2023/10/30 00:38:34;;;;;;;11.23;6.77;;;7.30;99.90;;;;;;4129816;28;20038;-61
2023/10/30 00:40:35;;;;;;;13.87;7.73;;;7.30;99.90;;;;;;4129773;28;20757;-60
2023/10/30 00:42:36;;;;;;;13.83;6.90;;;7.20;99.90;;;;;;4130337;28;20108;-62
2023/10/30 00:44:38;;;;;;;15.13;8.30;;;7.20;99.90;;;;;;4131247;28;20042;-58
2023/10/30 00:46:39;;;;;;;11.37;6.30;;;7.20;99.90;;;;;;4128178;28;20050;-59
2023/10/30 00:48:40;;;;;;;15.00;6.60;;;7.20;99.90;;;;;;4130669;28;20429;-62
2023/10/30 00:50:41;;;;;;;12.97;7.77;;;7.10;99.90;;;;;;4128721;28;20085;-61
2023/10/30 00:52:42;;;;;;;18.77;8.63;;;7.20;99.90;;;;;;4130057;28;20081;-61
2023/10/30 00:54:43;;;;;;;18.10;9.57;;;7.20;99.90;;;;;;4130355;28;20321;-62
2023/10/30 00:56:44;;;;;;;35.30;20.73;;;7.20;99.90;;;;;;4130293;28;20101;-62
2023/10/30 00:58:45;;;;;;;17.70;11.00;;;7.20;99.90;;;;;;4130655;28;20038;-60
2023/10/30 01:00:47;;;;;;;28.43;13.37;;;7.10;99.90;;;;;;4128981;28;20546;-61
2023/10/30 01:02:48;;;;;;;26.37;12.97;;;7.00;99.90;;;;;;4130007;28;20077;-58
2023/10/30 01:04:49;;;;;;;23.53;11.70;;;7.00;99.90;;;;;;4129030;28;20042;-61
2023/10/30 01:06:50;;;;;;;25.97;13.67;;;7.00;99.90;;;;;;4130387;28;20093;-59
2023/10/30 01:08:51;;;;;;;25.53;11.83;;;7.00;99.90;;;;;;4127708;28;20088;-56
2023/10/30 01:10:55;;;;;;;27.47;14.77;;;7.00;99.90;;;;;;4130582;28;20034;-61
2023/10/30 01:12:57;;;;;;;26.70;14.47;;;7.00;99.90;;;;;;4129414;28;20109;-62
2023/10/30 01:14:58;;;;;;;23.70;11.70;;;7.00;99.90;;;;;;4130366;28;20430;-61
2023/10/30 01:17:00;;;;;;;24.07;10.60;;;7.00;99.90;;;;;;4129305;28;20161;-59
2023/10/30 01:19:01;;;;;;;17.77;9.37;;;7.00;99.90;;;;;;4130117;28;20467;-61
2023/10/30 01:21:08;;;;;;;17.40;9.77;;;7.00;99.90;;;;;;4129484;28;20038;-61
2023/10/30 01:23:09;;;;;;;19.27;10.53;;;7.10;99.90;;;;;;4129994;28;20042;-61
2023/10/30 01:25:11;;;;;;;16.23;9.30;;;7.10;99.90;;;;;;4129433;28;20560;-61
2023/10/30 01:27:12;;;;;;;18.43;9.07;;;7.10;99.90;;;;;;4129500;28;20077;-62
2023/10/30 01:29:13;;;;;;;18.27;9.43;;;7.10;99.90;;;;;;4129938;28;20442;-62
2023/10/30 01:31:14;;;;;;;22.30;9.23;;;7.10;99.90;;;;;;4129118;28;20080;-62
2023/10/30 01:33:15;;;;;;;15.97;9.37;;;7.10;99.90;;;;;;4130136;28;20088;-62
2023/10/30 01:35:16;;;;;;;12.83;7.73;;;7.10;99.90;;;;;;4129236;28;20438;-60
2023/10/30 01:37:20;;;;;;;15.53;8.73;;;7.10;99.90;;;;;;4128769;28;20065;-64
2023/10/30 01:39:22;;;;;;;19.60;10.47;;;7.10;99.90;;;;;;4128057;28;20506;-62
2023/10/30 01:41:23;;;;;;;19.93;10.20;;;7.10;99.90;;;;;;4130058;28;20073;-58
2023/10/30 01:43:31;;;;;;;15.70;9.30;;;7.10;99.90;;;;;;4128686;28;20050;-61
2023/10/30 01:45:32;;;;;;;15.87;9.73;;;7.10;99.90;;;;;;4128979;28;20128;-62
2023/10/30 01:47:34;;;;;;;18.30;9.57;;;7.00;99.90;;;;;;4128953;28;20050;-60
2023/10/30 01:49:35;;;;;;;17.30;9.77;;;7.00;99.90;;;;;;4129340;28;20439;-62
2023/10/30 01:51:36;;;;;;;15.43;8.07;;;7.00;99.90;;;;;;4129323;28;20035;-60
2023/10/30 01:53:38;;;;;;;14.97;8.27;;;7.00;99.90;;;;;;4128859;28;20046;-61
2023/10/30 01:55:40;;;;;;;14.07;8.20;;;7.00;99.90;;;;;;4127032;28;20101;-61
2023/10/30 01:57:43;;;;;;;14.00;8.03;;;6.90;99.90;;;;;;4129994;28;20034;-63
2023/10/30 01:59:45;;;;;;;15.70;8.30;;;6.80;99.90;;;;;;4129670;28;20097;-61
2023/10/30 02:01:46;;;;;;;14.93;7.87;;;6.80;99.90;;;;;;4129060;28;20080;-62
2023/10/30 02:03:48;;;;;;;12.87;7.90;;;6.80;99.90;;;;;;4129548;28;20034;-61
2023/10/30 02:05:54;;;;;;;15.73;7.70;;;6.80;99.90;;;;;;4128679;28;20116;-59
2023/10/30 02:07:55;;;;;;;16.00;7.60;;;6.80;99.90;;;;;;4129745;28;20038;-58
2023/10/30 02:09:57;;;;;;;15.30;8.43;;;6.70;99.90;;;;;;4128624;28;20372;-57
2023/10/30 02:11:58;;;;;;;14.30;7.77;;;6.80;99.90;;;;;;4129213;28;20434;-60
2023/10/30 02:13:59;;;;;;;16.20;7.73;;;6.80;99.90;;;;;;4128049;28;20084;-59
2023/10/30 02:16:00;;;;;;;15.60;7.53;;;6.80;99.90;;;;;;4129254;28;20569;-60
2023/10/30 02:18:01;;;;;;;19.30;8.83;;;6.80;99.90;;;;;;4128404;28;20458;-61
2023/10/30 02:20:03;;;;;;;14.77;7.60;;;6.80;99.90;;;;;;4129613;28;20546;-61
2023/10/30 02:22:04;;;;;;;13.80;6.70;;;6.80;99.90;;;;;;4126879;28;20560;-61
2023/10/30 02:24:06;;;;;;;11.57;6.27;;;6.80;99.90;;;;;;4128276;28;20038;-61
2023/10/30 02:26:07;;;;;;;16.70;7.60;;;6.80;99.90;;;;;;4128423;28;20174;-57
2023/10/30 02:28:08;;;;;;;13.33;7.17;;;6.80;99.90;;;;;;4129574;28;20092;-61
2023/10/30 02:30:11;;;;;;;14.17;7.60;;;6.70;99.90;;;;;;4128838;28;20034;-61
2023/10/30 02:32:12;;;;;;;15.00;7.30;;;6.70;99.90;;;;;;4128589;28;20390;-61
2023/10/30 02:34:14;;;;;;;10.33;7.10;;;6.60;99.90;;;;;;4128958;28;20030;-61
2023/10/30 02:36:15;;;;;;;12.80;7.43;;;6.60;99.90;;;;;;4127830;28;20084;-61
2023/10/30 02:38:16;;;;;;;10.63;6.70;;;6.60;99.90;;;;;;4127533;28;20030;-61
2023/10/30 02:40:17;;;;;;;13.20;6.53;;;6.60;99.90;;;;;;4128310;28;20089;-60
2023/10/30 02:42:18;;;;;;;9.40;6.13;;;6.70;99.90;;;;;;4129086;28;20089;-57
2023/10/30 02:44:19;;;;;;;14.00;6.40;;;6.70;99.90;;;;;;4128117;28;20046;-59
2023/10/30 02:46:21;;;;;;;13.50;6.63;;;6.70;99.90;;;;;;4129014;28;20116;-59
2023/10/30 02:48:22;;;;;;;10.50;5.90;;;6.70;99.90;;;;;;4127902;28;20548;-58
2023/10/30 02:50:23;;;;;;;10.17;5.80;;;6.70;99.90;;;;;;4129535;28;20573;-60
2023/10/30 02:52:24;;;;;;;9.70;6.20;;;6.60;99.90;;;;;;4128047;28;20085;-62
2023/10/30 02:54:25;;;;;;;9.03;6.03;;;6.60;99.90;;;;;;4129042;28;20438;-61
2023/10/30 02:56:26;;;;;;;12.40;7.13;;;6.50;99.90;;;;;;4127671;28;20030;-61
2023/10/30 02:58:27;;;;;;;14.53;7.07;;;6.50;99.90;;;;;;4129214;28;20042;-60
2023/10/30 03:00:28;;;;;;;9.73;5.97;;;6.50;99.90;;;;;;4126450;28;20474;-60
2023/10/30 03:02:30;;;;;;;11.97;6.40;;;6.50;99.90;;;;;;4128773;28;20043;-59
2023/10/30 03:04:31;;;;;;;12.43;6.80;;;6.40;99.90;;;;;;4128617;28;20100;-58
2023/10/30 03:06:32;;;;;;;12.37;7.20;;;6.40;99.90;;;;;;4127518;28;20430;-61
2023/10/30 03:08:33;;;;;;;9.90;6.50;;;6.40;99.90;;;;;;4128598;28;20038;-58
2023/10/30 03:10:34;;;;;;;12.83;7.17;;;6.30;99.90;;;;;;4127735;28;20072;-60
2023/10/30 03:12:35;;;;;;;12.97;6.47;;;6.30;99.90;;;;;;4126336;28;20517;-60
2023/10/30 03:14:36;;;;;;;12.70;6.83;;;6.30;99.90;;;;;;4127385;28;20100;-62
2023/10/30 03:16:38;;;;;;;10.90;6.10;;;6.30;99.90;;;;;;4128599;28;20046;-60
2023/10/30 03:18:39;;;;;;;13.10;6.87;;;6.30;99.90;;;;;;4127795;28;20097;-61
2023/10/30 03:20:40;;;;;;;10.03;6.03;;;6.30;99.90;;;;;;4128035;28;20026;-60
2023/10/30 03:22:41;;;;;;;12.60;7.10;;;6.30;99.90;;;;;;4128200;28;20034;-62
2023/10/30 03:24:42;;;;;;;13.03;7.13;;;6.20;99.90;;;;;;4131314;28;20034;-62
2023/10/30 03:26:43;;;;;;;10.10;6.40;;;6.20;99.90;;;;;;4130303;28;21168;-59
2023/10/30 03:28:45;;;;;;;10.30;6.10;;;6.20;99.90;;;;;;4132097;28;20038;-60
2023/10/30 03:30:46;;;;;;;12.47;6.17;;;6.10;99.90;;;;;;4131127;28;20030;-61
2023/10/30 03:32:47;;;;;;;14.17;7.00;;;6.10;99.90;;;;;;4130471;28;20038;-63
2023/10/30 03:34:48;;;;;;;10.93;6.57;;;6.10;99.90;;;;;;4131655;28;20076;-62
2023/10/30 03:36:49;;;;;;;11.93;7.00;;;6.10;99.90;;;;;;4131284;28;20109;-61
2023/10/30 03:38:51;;;;;;;10.00;6.17;;;6.10;99.90;;;;;;4131306;28;20093;-61
2023/10/30 03:40:52;;;;;;;14.80;7.13;;;6.10;99.90;;;;;;4130580;28;20463;-61
2023/10/30 03:42:53;;;;;;;10.33;6.03;;;6.10;99.90;;;;;;4131988;28;20034;-63
2023/10/30 03:44:54;;;;;;;10.40;6.07;;;6.10;99.90;;;;;;4131043;28;20491;-59
2023/10/30 03:46:55;;;;;;;15.97;6.80;;;6.10;99.90;;;;;;4131718;28;20097;-59
2023/10/30 03:48:56;;;;;;;14.33;7.20;;;6.10;99.90;;;;;;4130719;28;20054;-62
2023/10/30 03:50:58;;;;;;;12.27;6.50;;;6.20;99.90;;;;;;4131926;28;20156;-62
2023/10/30 03:52:59;;;;;;;15.37;7.40;;;6.20;99.90;;;;;;4130835;28;20089;-60
2023/10/30 03:55:03;;;;;;;11.03;6.87;;;6.20;99.90;;;;;;4131703;28;20084;-58
2023/10/30 03:57:08;;;;;;;12.17;6.57;;;6.20;99.90;;;;;;4130271;28;20482;-60
2023/10/30 03:59:10;;;;;;;16.53;7.30;;;6.30;99.90;;;;;;4131471;28;21925;-61
2023/10/30 04:01:11;;;;;;;14.37;6.50;;;6.30;99.90;;;;;;4130866;28;20050;-60
2023/10/30 04:03:12;;;;;;;12.20;6.50;;;6.30;99.90;;;;;;4130912;28;20030;-58
2023/10/30 04:05:13;;;;;;;14.57;6.63;;;6.30;99.90;;;;;;4130468;28;20042;-60
2023/10/30 04:07:14;;;;;;;10.83;5.70;;;6.30;99.90;;;;;;4129269;28;20046;-58
2023/10/30 04:09:15;;;;;;;16.43;6.50;;;6.30;99.90;;;;;;4131090;28;20486;-61
2023/10/30 04:11:18;;;;;;;10.00;6.33;;;6.30;99.90;;;;;;4129834;28;20046;-58
2023/10/30 04:13:19;;;;;;;11.80;7.13;;;6.30;99.90;;;;;;4131534;28;20039;-60
2023/10/30 04:15:20;;;;;;;11.77;6.80;;;6.30;99.90;;;;;;4130202;28;20042;-61
2023/10/30 04:17:21;;;;;;;10.27;6.33;;;6.30;99.90;;;;;;4130883;28;20046;-60
2023/10/30 04:19:22;;;;;;;10.37;5.80;;;6.30;99.90;;;;;;4130132;28;20031;-60
2023/10/30 04:21:23;;;;;;;8.63;5.80;;;6.40;99.90;;;;;;4131166;28;20809;-61
2023/10/30 04:23:24;;;;;;;15.47;6.90;;;6.40;99.90;;;;;;4130772;28;20038;-57
2023/10/30 04:25:25;;;;;;;13.20;7.57;;;6.40;99.90;;;;;;4131404;28;20553;-57
2023/10/30 04:27:27;;;;;;;13.33;7.50;;;6.40;99.90;;;;;;4128627;28;20104;-60
2023/10/30 04:29:28;;;;;;;16.57;8.13;;;6.30;99.90;;;;;;4131505;28;20046;-60
2023/10/30 04:31:30;;;;;;;17.67;8.17;;;6.30;99.90;;;;;;4129946;28;20434;-60
2023/10/30 04:33:31;;;;;;;22.67;7.50;;;6.30;99.90;;;;;;4130410;28;20030;-60
2023/10/30 04:35:32;;;;;;;14.77;7.70;;;6.20;99.90;;;;;;4129109;28;20026;-60
2023/10/30 04:37:34;;;;;;;15.20;8.03;;;6.20;99.90;;;;;;4130347;28;20038;-62
2023/10/30 04:39:35;;;;;;;14.43;7.57;;;6.20;99.90;;;;;;4129455;28;20026;-64
2023/10/30 04:41:36;;;;;;;12.67;7.70;;;6.20;99.90;;;;;;4129665;28;20050;-60
2023/10/30 04:43:37;;;;;;;17.63;8.10;;;6.20;99.90;;;;;;4129424;28;20042;-61
2023/10/30 04:45:39;;;;;;;10.17;6.77;;;6.20;99.90;;;;;;4129797;28;20030;-60
2023/10/30 04:47:40;;;;;;;11.67;7.43;;;6.20;99.90;;;;;;4130705;28;20073;-58
2023/10/30 04:49:45;;;;;;;11.93;6.70;;;6.20;99.90;;;;;;4129328;28;20030;-60
2023/10/30 04:51:46;;;;;;;12.23;7.23;;;6.20;99.90;;;;;;4131026;28;20753;-60
2023/10/30 04:53:47;;;;;;;13.30;7.10;;;6.20;99.90;;;;;;4130146;28;20140;-61
2023/10/30 04:55:49;;;;;;;16.03;6.10;;;6.20;99.90;;;;;;4129727;28;20084;-60
2023/10/30 04:57:51;;;;;;;12.60;6.43;;;6.20;99.90;;;;;;4129778;28;20101;-59
2023/10/30 04:59:52;;;;;;;8.47;5.23;;;6.30;99.90;;;;;;4130689;28;20038;-60
2023/10/30 05:01:53;;;;;;;10.90;5.53;;;6.30;99.90;;;;;;4117652;28;20448;-60
2023/10/30 05:03:54;;;;;;;12.50;5.80;;;6.30;99.90;;;;;;4114662;28;20042;-59
2023/10/30 05:05:55;;;;;;;9.70;4.70;;;6.30;99.90;;;;;;4120605;28;20100;-61
2023/10/30 05:07:56;;;;;;;10.07;5.27;;;6.30;99.90;;;;;;4128751;28;20077;-61
2023/10/30 05:09:57;;;;;;;17.17;6.80;;;6.30;99.90;;;;;;4130068;28;20034;-61
2023/10/30 05:11:59;;;;;;;15.30;6.23;;;6.40;99.90;;;;;;4129564;28;20085;-59
2023/10/30 05:14:00;;;;;;;18.23;7.40;;;6.40;99.90;;;;;;4130003;28;20038;-61
2023/10/30 05:16:02;;;;;;;18.27;7.53;;;6.40;99.90;;;;;;4127901;28;20054;-58
2023/10/30 05:18:03;;;;;;;15.23;6.97;;;6.40;99.90;;;;;;4130232;28;20442;-62
2023/10/30 05:20:05;;;;;;;17.00;7.87;;;6.50;99.90;;;;;;4128773;28;20117;-62
2023/10/30 05:22:07;;;;;;;16.63;9.00;;;6.60;99.90;;;;;;4130718;28;20057;-61
2023/10/30 05:24:08;;;;;;;18.77;7.40;;;6.70;99.90;;;;;;4129113;28;20038;-59
2023/10/30 05:26:09;;;;;;;18.37;7.97;;;6.70;99.90;;;;;;4130227;28;20116;-57
2023/10/30 05:28:10;;;;;;;16.23;7.83;;;6.90;99.90;;;;;;4129239;28;20085;-60
2023/10/30 05:30:12;;;;;;;17.80;8.33;;;7.00;99.90;;;;;;4130341;28;20092;-59
2023/10/30 05:32:13;;;;;;;21.60;8.73;;;7.20;99.90;;;;;;4128744;28;20085;-60
2023/10/30 05:34:14;;;;;;;20.63;9.07;;;7.40;99.90;;;;;;4129199;28;20034;-57
2023/10/30 05:36:15;;;;;;;15.13;8.00;;;7.70;99.90;;;;;;4129342;28;20042;-60
2023/10/30 05:38:16;;;;;;;16.83;7.67;;;8.10;99.90;;;;;;4128894;28;20134;-61
2023/10/30 05:40:18;;;;;;;26.30;8.57;;;8.40;99.90;;;;;;4129544;28;20050;-58
2023/10/30 05:42:19;;;;;;;18.97;7.57;;;8.50;99.90;;;;;;4129323;28;20050;-61
2023/10/30 05:44:20;;;;;;;21.40;8.83;;;8.70;99.90;;;;;;4128386;28;20451;-59
2023/10/30 05:46:21;;;;;;;18.33;8.23;;;8.90;99.90;;;;;;4128502;28;20154;-61
2023/10/30 05:48:22;;;;;;;30.07;7.63;;;9.20;99.90;;;;;;4130154;28;20031;-61
2023/10/30 05:50:24;;;;;;;17.10;7.53;;;9.60;99.90;;;;;;4127876;28;20018;-60
2023/10/30 05:52:25;;;;;;;18.97;8.23;;;9.90;99.90;;;;;;4130415;28;20038;-60
2023/10/30 05:54:26;;;;;;;16.83;9.23;;;10.20;99.90;;;;;;4129027;28;20442;-58
2023/10/30 05:56:27;;;;;;;23.63;8.63;;;10.40;99.90;;;;;;4129777;28;20046;-60
2023/10/30 05:58:28;;;;;;;14.30;7.67;;;10.70;99.90;;;;;;4128783;28;20050;-59
2023/10/30 06:00:29;;;;;;;16.60;7.87;;;11.10;99.90;;;;;;4128417;28;20513;-60
2023/10/30 06:02:30;;;;;;;19.00;7.60;;;11.30;99.90;;;;;;4128530;28;20501;-58
2023/10/30 06:04:32;;;;;;;16.90;7.67;;;11.50;99.90;;;;;;4129922;28;20088;-62
2023/10/30 06:06:33;;;;;;;21.00;7.47;;;11.70;99.90;;;;;;4128416;28;20050;-59
2023/10/30 06:08:34;;;;;;;14.33;7.17;;;11.90;99.90;;;;;;4129061;28;20038;-61
2023/10/30 06:10:37;;;;;;;12.30;7.47;;;12.00;99.90;;;;;;4129204;28;20018;-61
2023/10/30 06:12:39;;;;;;;16.88;7.60;;;12.00;99.90;;;;;;4128842;28;20038;-61
2023/10/30 06:14:40;;;;;;;15.80;7.80;;;11.80;99.90;;;;;;4128803;28;20042;-62
2023/10/30 06:16:43;;;;;;;17.02;7.65;;;11.80;99.90;;;;;;4127317;28;20050;-60
2023/10/30 06:18:45;;;;;;;19.85;8.98;;;11.80;99.90;;;;;;4129649;28;20053;-59
2023/10/30 06:20:46;;;;;;;23.23;8.82;;;11.80;99.90;;;;;;4127428;28;20093;-60
2023/10/30 06:22:47;;;;;;;27.10;9.52;;;11.60;99.90;;;;;;4130008;28;20089;-61
2023/10/30 06:24:48;;;;;;;20.07;9.97;;;11.50;99.90;;;;;;4128414;28;20022;-59
2023/10/30 06:26:49;;;;;;;25.87;10.83;;;11.20;99.90;;;;;;4128147;28;20055;-60
2023/10/30 06:28:50;;;;;;;18.03;9.63;;;11.00;99.90;;;;;;4127992;28;20034;-60
2023/10/30 06:30:52;;;;;;;20.27;10.63;;;10.70;99.90;;;;;;4139650;28;20037;-61
2023/10/30 06:32:53;;;;;;;26.67;12.63;;;10.50;99.90;;;;;;4144452;28;20552;-60
2023/10/30 06:34:54;;;;;;;33.73;14.30;;;10.30;99.90;;;;;;4145034;28;20030;-61
2023/10/30 06:36:55;;;;;;;26.23;12.07;;;10.20;99.90;;;;;;4128420;28;20084;-59
2023/10/30 06:38:57;;;;;;;24.53;12.30;;;10.10;99.90;;;;;;4128502;28;20088;-61
2023/10/30 06:40:58;;;;;;;34.60;12.23;;;10.10;99.90;;;;;;4128263;28;20022;-59
2023/10/30 06:42:59;;;;;;;23.50;11.73;;;10.30;99.90;;;;;;4128155;28;20042;-61
2023/10/30 06:45:00;;;;;;;26.07;11.60;;;10.70;99.90;;;;;;4128405;28;20084;-59
2023/10/30 06:47:02;;;;;;;23.67;11.77;;;11.30;99.90;;;;;;4127541;28;20478;-60
2023/10/30 06:49:03;;;;;;;24.10;11.43;;;11.80;99.90;;;;;;4127600;28;20097;-61
2023/10/30 06:51:04;;;;;;;25.87;12.33;;;12.30;99.90;;;;;;4127770;28;20023;-60
2023/10/30 06:53:06;;;;;;;21.63;10.97;;;12.60;99.90;;;;;;4129208;28;20113;-59
2023/10/30 06:55:07;;;;;;;22.83;10.07;;;12.80;99.90;;;;;;4121696;28;20141;-60
2023/10/30 06:57:08;;;;;;;21.83;10.73;;;12.80;99.90;;;;;;4128627;28;20077;-60
2023/10/30 06:59:12;;;;;;;20.83;10.67;;;12.90;99.90;;;;;;4127272;28;20435;-61
2023/10/30 07:01:14;;;;;;;16.63;9.13;;;13.00;99.90;;;;;;4129071;28;20096;-61
2023/10/30 07:03:15;;;;;;;21.63;8.10;;;13.60;99.90;;;;;;4127594;28;20046;-62
2023/10/30 07:05:16;;;;;;;17.37;8.07;;;13.80;99.90;;;;;;4128826;28;20109;-63
2023/10/30 07:07:17;;;;;;;14.90;7.73;;;14.00;99.90;;;;;;4127401;28;20082;-62
2023/10/30 07:09:18;;;;;;;18.20;8.07;;;14.20;99.90;;;;;;4127377;28;20519;-62
2023/10/30 07:11:19;;;;;;;20.20;9.30;;;14.50;99.90;;;;;;4128090;28;20026;-63
2023/10/30 07:13:21;;;;;;;15.30;8.23;;;14.50;99.90;;;;;;4128351;28;20121;-59
2023/10/30 07:15:22;;;;;;;13.38;7.75;;;14.70;99.90;;;;;;4127939;28;20482;-62
2023/10/30 07:17:23;;;;;;;14.17;8.23;;;14.70;99.90;;;;;;4111196;28;20105;-62
2023/10/30 07:19:25;;;;;;;16.40;8.43;;;14.70;99.90;;;;;;4117741;28;20042;-61
2023/10/30 07:21:27;;;;;;;15.38;7.35;;;14.80;99.90;;;;;;4127406;28;20122;-61
2023/10/30 07:23:28;;;;;;;13.90;6.57;;;14.80;99.90;;;;;;4128794;28;20026;-62
2023/10/30 07:25:29;;;;;;;9.43;6.35;;;14.90;99.90;;;;;;4127550;28;20458;-61
2023/10/30 07:27:30;;;;;;;12.75;6.70;;;14.80;99.90;;;;;;4129046;28;20042;-61
2023/10/30 07:29:31;;;;;;;18.30;9.15;;;14.80;99.90;;;;;;4127633;28;20105;-60
2023/10/30 07:31:33;;;;;;;15.15;7.95;;;14.90;99.90;;;;;;4128029;28;20046;-60
2023/10/30 07:33:34;;;;;;;9.57;5.80;;;14.50;99.90;;;;;;4127136;28;20046;-60
2023/10/30 07:35:35;;;;;;;10.38;4.95;;;14.30;99.90;;;;;;4127607;28;20110;-63
2023/10/30 07:37:36;;;;;;;9.77;5.32;;;14.20;99.90;;;;;;4127015;28;20101;-62
2023/10/30 07:39:37;;;;;;;9.27;5.07;;;14.30;99.90;;;;;;4127617;28;20065;-62
2023/10/30 07:41:39;;;;;;;10.70;4.93;;;14.60;99.90;;;;;;4127491;28;20034;-62
2023/10/30 07:43:40;;;;;;;12.30;5.75;;;14.70;99.90;;;;;;4127494;28;20035;-59
2023/10/30 07:45:41;;;;;;;7.13;4.45;;;14.50;99.90;;;;;;4127824;28;20553;-61
2023/10/30 07:47:42;;;;;;;11.32;4.90;;;14.40;99.90;;;;;;4125847;28;20023;-62
2023/10/30 07:49:43;;;;;;;17.23;6.00;;;14.20;99.90;;;;;;4127401;28;20034;-58
2023/10/30 07:51:45;;;;;;;10.40;6.15;;;14.10;99.90;;;;;;4126468;28;20124;-60
2023/10/30 07:53:46;;;;;;;13.23;7.25;;;14.00;99.90;;;;;;4128573;28;20026;-61
2023/10/30 07:55:47;;;;;;;13.73;8.50;;;14.00;99.90;;;;;;4126927;28;20101;-62
2023/10/30 07:57:48;;;;;;;15.40;8.23;;;14.10;99.90;;;;;;4128576;28;20038;-62
2023/10/30 07:59:50;;;;;;;12.82;6.07;;;14.30;99.90;;;;;;4127182;28;20058;-62
2023/10/30 08:01:51;;;;;;;9.85;5.90;;;14.30;99.90;;;;;;4128120;28;20100;-60
2023/10/30 08:03:52;;;;;;;12.73;5.57;;;14.10;99.90;;;;;;4126929;28;20038;-62
2023/10/30 08:05:53;;;;;;;11.07;5.38;;;14.00;99.90;;;;;;4128218;28;20046;-63
2023/10/30 08:07:54;;;;;;;11.93;5.78;;;13.90;99.90;;;;;;4126991;28;20124;-61
2023/10/30 08:09:55;;;;;;;12.05;5.97;;;13.90;99.90;;;;;;4127792;28;20089;-61
2023/10/30 08:11:57;;;;;;;11.15;5.30;;;13.90;99.90;;;;;;4130037;28;20042;-62
2023/10/30 08:13:58;;;;;;;9.15;5.35;;;14.00;99.90;;;;;;4130506;28;20073;-61
2023/10/30 08:15:59;;;;;;;10.75;6.30;;;14.10;99.90;;;;;;4130365;28;20042;-62
2023/10/30 08:18:03;;;;;;;15.65;6.25;;;14.00;99.90;;;;;;4130344;28;20467;-60
2023/10/30 08:20:06;;;;;;;16.17;6.15;;;14.00;99.90;;;;;;4129115;28;20112;-61
2023/10/30 08:22:07;;;;;;;13.93;6.57;;;14.00;99.90;;;;;;4129330;28;20046;-61
2023/10/30 08:24:09;;;;;;;12.15;6.82;;;14.10;99.90;;;;;;4130873;28;20046;-61
2023/10/30 08:26:10;;;;;;;9.80;6.22;;;14.10;99.90;;;;;;4129324;28;20035;-62
2023/10/30 08:28:11;;;;;;;18.17;6.82;;;14.20;99.90;;;;;;4129975;28;20097;-62
2023/10/30 08:30:13;;;;;;;14.95;6.22;;;14.20;99.90;;;;;;4129119;28;20368;-66
2023/10/30 08:32:14;;;;;;;16.88;6.50;;;14.50;99.90;;;;;;4129534;28;20034;-62
2023/10/30 08:34:15;;;;;;;10.10;6.75;;;14.70;99.90;;;;;;4129883;28;20045;-63
2023/10/30 08:36:21;;;;;;;12.23;7.00;;;15.00;99.90;;;;;;4128610;28;20046;-62
2023/10/30 08:38:22;;;;;;;11.07;6.22;;;15.10;99.90;;;;;;4129172;28;20054;-61
2023/10/30 08:40:24;;;;;;;13.10;6.32;;;15.30;99.90;;;;;;4130253;28;20088;-62
2023/10/30 08:42:25;;;;;;;9.85;5.93;;;15.40;99.90;;;;;;4129076;28;20080;-60
2023/10/30 08:44:27;;;;;;;13.40;6.43;;;15.60;99.90;;;;;;4129992;28;20117;-62
2023/10/30 08:46:28;;;;;;;15.15;7.15;;;15.80;99.90;;;;;;4129672;28;20050;-61
2023/10/30 08:48:29;;;;;;;15.82;8.02;;;15.90;99.90;;;;;;4129534;28;20038;-58
2023/10/30 08:50:30;;;;;;;14.05;7.22;;;16.20;99.90;;;;;;4130101;28;20030;-62
2023/10/30 08:52:31;;;;;;;14.77;7.10;;;16.40;99.90;;;;;;4129208;28;20519;-61
2023/10/30 08:54:32;;;;;;;20.63;8.07;;;16.80;99.90;;;;;;4130444;28;20034;-62
2023/10/30 08:56:34;;;;;;;12.25;6.80;;;17.00;99.90;;;;;;4129556;28;20034;-61
2023/10/30 08:58:35;;;;;;;12.32;7.88;;;17.30;99.90;;;;;;4130634;28;20085;-60
2023/10/30 09:00:36;;;;;;;11.25;6.10;;;17.60;99.90;;;;;;4129005;28;20097;-62
2023/10/30 09:02:38;;;;;;;9.38;5.90;;;17.60;99.90;;;;;;4130342;28;20050;-61
2023/10/30 09:04:39;;;;;;;12.10;6.53;;;17.70;99.90;;;;;;4128872;28;20050;-62
2023/10/30 09:06:42;;;;;;;14.50;6.38;;;17.80;99.90;;;;;;4130268;28;20073;-61
2023/10/30 09:08:43;;;;;;;10.75;6.20;;;17.80;99.90;;;;;;4128732;28;20938;-60
2023/10/30 09:10:44;;;;;;;12.88;7.07;;;17.80;99.90;;;;;;4130005;28;20030;-61
2023/10/30 09:12:45;;;;;;;12.80;6.72;;;17.90;99.90;;;;;;4128972;28;20133;-62
2023/10/30 09:14:47;;;;;;;10.40;6.32;;;17.90;99.90;;;;;;4129977;28;20038;-62
2023/10/30 09:16:48;;;;;;;10.48;5.80;;;17.90;99.90;;;;;;4128944;28;20057;-61
2023/10/30 09:18:49;;;;;;;8.07;5.22;;;17.80;99.90;;;;;;4129282;28;20042;-62
2023/10/30 09:20:50;;;;;;;10.88;6.18;;;17.90;99.90;;;;;;4129547;28;20081;-60
2023/10/30 09:22:51;;;;;;;12.32;6.45;;;18.00;99.90;;;;;;4128468;28;20026;-61
2023/10/30 09:24:52;;;;;;;16.05;5.60;;;18.10;99.90;;;;;;4130081;28;20816;-62
2023/10/30 09:26:54;;;;;;;16.95;5.90;;;18.20;99.90;;;;;;4128685;28;20096;-58
2023/10/30 09:28:55;;;;;;;9.30;5.40;;;18.20;99.90;;;;;;4129982;28;20026;-61
2023/10/30 09:30:56;;;;;;;16.17;6.15;;;18.20;99.90;;;;;;4128401;28;20089;-60
2023/10/30 09:33:01;;;;;;;9.63;5.13;;;18.20;99.90;;;;;;4129703;28;20365;-62
2023/10/30 09:35:03;;;;;;;14.20;6.10;;;18.20;99.90;;;;;;4128921;28;20052;-62
2023/10/30 09:37:04;;;;;;;12.90;6.38;;;18.20;99.90;;;;;;4129714;28;20081;-62
2023/10/30 09:39:05;;;;;;;10.82;5.72;;;18.20;99.90;;;;;;4128641;28;20030;-63
2023/10/30 09:41:09;;;;;;;9.82;5.65;;;18.10;99.90;;;;;;4129641;28;20084;-61
2023/10/30 09:43:10;;;;;;;9.55;6.03;;;18.10;99.90;;;;;;4128218;28;20081;-61
2023/10/30 09:45:15;;;;;;;11.35;6.07;;;18.20;99.90;;;;;;4129007;28;20038;-62
2023/10/30 09:47:18;;;;;;;9.43;5.88;;;18.20;99.90;;;;;;4128416;28;20120;-62
2023/10/30 09:49:22;;;;;;;10.65;5.93;;;18.30;99.90;;;;;;4129271;28;20325;-63
2023/10/30 09:51:25;;;;;;;11.30;5.55;;;18.40;99.90;;;;;;4129240;28;20061;-60
2023/10/30 09:53:26;;;;;;;10.18;5.30;;;18.50;99.90;;;;;;4129480;28;20030;-63
2023/10/30 09:55:28;;;;;;;9.88;5.20;;;18.60;99.90;;;;;;4129355;28;20030;-62
2023/10/30 09:57:29;;;;;;;9.02;4.75;;;18.60;99.90;;;;;;4128528;28;20046;-62
2023/10/30 09:59:36;;;;;;;12.77;5.90;;;18.70;99.90;;;;;;4129396;28;20026;-62
2023/10/30 10:01:37;;;;;;;11.93;5.53;;;18.80;99.90;;;;;;4128137;28;20104;-62
2023/10/30 10:03:39;;;;;;;12.27;5.60;;;18.80;99.90;;;;;;4129384;28;20046;-62
2023/10/30 10:05:40;;;;;;;9.00;4.68;;;18.70;99.90;;;;;;4128297;28;20084;-62
2023/10/30 10:07:41;;;;;;;14.02;5.75;;;18.60;99.90;;;;;;4129279;28;20031;-61
2023/10/30 10:10:03;;;;;;;18.30;6.75;;;18.60;99.90;;;;;;4128023;28;20030;-62
2023/10/30 10:12:19;;;;;;;11.40;5.78;;;18.60;99.90;;;;;;4128941;28;20042;-61
2023/10/30 10:14:21;;;;;;;18.30;7.43;;;18.40;99.90;;;;;;4127813;28;20046;-56
2023/10/30 10:16:30;;;;;;;12.98;5.32;;;18.40;99.90;;;;;;4128994;28;20046;-60
2023/10/30 10:18:34;;;;;;;14.75;6.97;;;18.50;99.90;;;;;;4128066;28;20097;-60
2023/10/30 10:20:35;;;;;;;9.43;4.68;;;18.60;99.90;;;;;;4129168;28;20050;-61
2023/10/30 10:22:37;;;;;;;8.35;4.18;;;18.60;99.90;;;;;;4127918;28;20088;-62
2023/10/30 10:24:38;;;;;;;9.60;4.28;;;18.60;99.90;;;;;;4129407;28;20038;-60
2023/10/30 10:26:40;;;;;;;6.90;3.75;;;18.60;99.90;;;;;;4128034;28;20483;-60
2023/10/30 10:28:44;;;;;;;6.40;3.10;;;18.60;99.90;;;;;;4129145;28;20031;-61